sensor_id;sensor_type;location;lat;lon;timestamp;P1;durP1;ratioP1;P2;durP2;ratioP2
20758;SDS011;10539;53.686;9.158;2023-02-28T00:00:27;4.30;;;2.00;;
20758;SDS011;10539;53.686;9.158;2023-02-28T00:02:53;6.60;;;2.03;;
20758;SDS011;10539;53.686;9.158;2023-02-28T00:05:20;5.73;;;1.90;;
20758;SDS011;10539;53.686;9.158;2023-02-28T00:07:48;6.23;;;2.27;;
20758;SDS011;10539;53.686;9.158;2023-02-28T00:10:17;5.20;;;2.20;;
20758;SDS011;10539;53.686;9.158;2023-02-28T00:12:51;6.83;;;2.27;;
20758;SDS011;10539;53.686;9.158;2023-02-28T00:15:18;6.27;;;2.70;;
20758;SDS011;10539;53.686;9.158;2023-02-28T00:17:44;7.77;;;2.00;;
20758;SDS011;10539;53.686;9.158;2023-02-28T00:20:10;7.43;;;2.67;;
20758;SDS011;10539;53.686;9.158;2023-02-28T00:22:41;5.97;;;3.10;;
20758;SDS011;10539;53.686;9.158;2023-02-28T00:25:09;5.63;;;2.93;;
20758;SDS011;10539;53.686;9.158;2023-02-28T00:27:36;9.80;;;3.33;;
20758;SDS011;10539;53.686;9.158;2023-02-28T00:30:04;6.33;;;3.60;;
20758;SDS011;10539;53.686;9.158;2023-02-28T00:32:33;6.30;;;3.00;;
20758;SDS011;10539;53.686;9.158;2023-02-28T00:34:59;6.50;;;3.60;;
20758;SDS011;10539;53.686;9.158;2023-02-28T00:37:25;6.53;;;3.40;;
20758;SDS011;10539;53.686;9.158;2023-02-28T00:39:51;9.63;;;3.50;;
20758;SDS011;10539;53.686;9.158;2023-02-28T00:42:17;8.90;;;4.07;;
20758;SDS011;10539;53.686;9.158;2023-02-28T00:44:43;9.43;;;3.53;;
20758;SDS011;10539;53.686;9.158;2023-02-28T00:47:08;8.67;;;3.50;;
20758;SDS011;10539;53.686;9.158;2023-02-28T00:49:34;7.03;;;3.70;;
20758;SDS011;10539;53.686;9.158;2023-02-28T00:52:00;9.80;;;3.70;;
20758;SDS011;10539;53.686;9.158;2023-02-28T00:54:26;8.07;;;3.43;;
20758;SDS011;10539;53.686;9.158;2023-02-28T00:56:51;7.60;;;3.67;;
20758;SDS011;10539;53.686;9.158;2023-02-28T00:59:17;10.87;;;3.60;;
20758;SDS011;10539;53.686;9.158;2023-02-28T01:01:43;8.27;;;3.40;;
20758;SDS011;10539;53.686;9.158;2023-02-28T01:04:11;7.57;;;3.50;;
20758;SDS011;10539;53.686;9.158;2023-02-28T01:06:37;5.57;;;3.37;;
20758;SDS011;10539;53.686;9.158;2023-02-28T01:09:04;5.80;;;3.30;;
20758;SDS011;10539;53.686;9.158;2023-02-28T01:11:31;9.20;;;3.37;;
20758;SDS011;10539;53.686;9.158;2023-02-28T01:13:57;7.60;;;3.57;;
20758;SDS011;10539;53.686;9.158;2023-02-28T01:16:23;6.10;;;3.43;;
20758;SDS011;10539;53.686;9.158;2023-02-28T01:18:49;9.17;;;4.00;;
20758;SDS011;10539;53.686;9.158;2023-02-28T01:21:16;6.97;;;3.50;;
20758;SDS011;10539;53.686;9.158;2023-02-28T01:23:43;11.63;;;3.83;;
20758;SDS011;10539;53.686;9.158;2023-02-28T01:26:19;10.37;;;4.03;;
20758;SDS011;10539;53.686;9.158;2023-02-28T01:28:47;10.27;;;4.67;;
20758;SDS011;10539;53.686;9.158;2023-02-28T01:31:14;8.60;;;3.57;;
20758;SDS011;10539;53.686;9.158;2023-02-28T01:33:40;6.30;;;4.17;;
20758;SDS011;10539;53.686;9.158;2023-02-28T01:36:14;8.77;;;4.73;;
20758;SDS011;10539;53.686;9.158;2023-02-28T01:38:41;11.37;;;4.40;;
20758;SDS011;10539;53.686;9.158;2023-02-28T01:41:08;9.10;;;3.97;;
20758;SDS011;10539;53.686;9.158;2023-02-28T01:46:10;11.53;;;4.17;;
20758;SDS011;10539;53.686;9.158;2023-02-28T01:48:46;9.27;;;4.33;;
20758;SDS011;10539;53.686;9.158;2023-02-28T01:51:18;7.50;;;3.50;;
20758;SDS011;10539;53.686;9.158;2023-02-28T01:53:50;8.10;;;3.90;;
20758;SDS011;10539;53.686;9.158;2023-02-28T01:56:20;10.47;;;4.30;;
20758;SDS011;10539;53.686;9.158;2023-02-28T01:58:51;8.00;;;4.03;;
20758;SDS011;10539;53.686;9.158;2023-02-28T02:01:18;6.13;;;3.60;;
20758;SDS011;10539;53.686;9.158;2023-02-28T02:03:48;9.87;;;3.93;;
20758;SDS011;10539;53.686;9.158;2023-02-28T02:06:20;9.80;;;4.30;;
20758;SDS011;10539;53.686;9.158;2023-02-28T02:08:58;9.83;;;3.57;;
20758;SDS011;10539;53.686;9.158;2023-02-28T02:11:24;12.70;;;3.80;;
20758;SDS011;10539;53.686;9.158;2023-02-28T02:14:01;6.20;;;3.27;;
20758;SDS011;10539;53.686;9.158;2023-02-28T02:37:59;7.13;;;3.43;;
20758;SDS011;10539;53.686;9.158;2023-02-28T02:40:35;9.27;;;3.77;;
20758;SDS011;10539;53.686;9.158;2023-02-28T02:45:44;7.07;;;3.10;;
20758;SDS011;10539;53.686;9.158;2023-02-28T02:48:19;6.17;;;3.50;;
20758;SDS011;10539;53.686;9.158;2023-02-28T02:50:54;6.80;;;3.50;;
20758;SDS011;10539;53.686;9.158;2023-02-28T02:53:25;8.03;;;3.47;;
20758;SDS011;10539;53.686;9.158;2023-02-28T02:56:03;9.13;;;3.50;;
20758;SDS011;10539;53.686;9.158;2023-02-28T02:58:31;7.27;;;3.50;;
20758;SDS011;10539;53.686;9.158;2023-02-28T03:01:07;8.33;;;3.30;;
20758;SDS011;10539;53.686;9.158;2023-02-28T03:03:39;10.10;;;3.47;;
20758;SDS011;10539;53.686;9.158;2023-02-28T03:06:05;6.50;;;3.07;;
20758;SDS011;10539;53.686;9.158;2023-02-28T03:08:34;6.97;;;3.30;;
20758;SDS011;10539;53.686;9.158;2023-02-28T03:11:03;7.30;;;3.50;;
20758;SDS011;10539;53.686;9.158;2023-02-28T03:19:02;12.60;;;3.37;;
20758;SDS011;10539;53.686;9.158;2023-02-28T03:27:26;10.40;;;3.80;;
20758;SDS011;10539;53.686;9.158;2023-02-28T03:30:05;10.13;;;3.53;;
20758;SDS011;10539;53.686;9.158;2023-02-28T03:32:36;8.13;;;3.50;;
20758;SDS011;10539;53.686;9.158;2023-02-28T03:35:11;5.47;;;3.17;;
20758;SDS011;10539;53.686;9.158;2023-02-28T03:37:46;7.87;;;3.23;;
20758;SDS011;10539;53.686;9.158;2023-02-28T03:40:23;7.90;;;3.47;;
20758;SDS011;10539;53.686;9.158;2023-02-28T03:42:54;6.53;;;3.23;;
20758;SDS011;10539;53.686;9.158;2023-02-28T03:45:25;9.40;;;3.53;;
20758;SDS011;10539;53.686;9.158;2023-02-28T03:47:57;7.80;;;3.20;;
20758;SDS011;10539;53.686;9.158;2023-02-28T03:50:34;10.40;;;3.30;;
20758;SDS011;10539;53.686;9.158;2023-02-28T03:53:14;8.37;;;3.70;;
20758;SDS011;10539;53.686;9.158;2023-02-28T03:55:56;6.33;;;3.27;;
20758;SDS011;10539;53.686;9.158;2023-02-28T04:01:08;11.10;;;3.67;;
20758;SDS011;10539;53.686;9.158;2023-02-28T04:03:37;10.17;;;3.73;;
20758;SDS011;10539;53.686;9.158;2023-02-28T04:06:04;8.03;;;3.80;;
20758;SDS011;10539;53.686;9.158;2023-02-28T04:08:33;7.93;;;3.73;;
20758;SDS011;10539;53.686;9.158;2023-02-28T04:11:04;7.53;;;3.53;;
20758;SDS011;10539;53.686;9.158;2023-02-28T04:13:40;6.93;;;3.63;;
20758;SDS011;10539;53.686;9.158;2023-02-28T04:16:09;6.77;;;3.63;;
20758;SDS011;10539;53.686;9.158;2023-02-28T04:18:38;6.93;;;3.43;;
20758;SDS011;10539;53.686;9.158;2023-02-28T04:21:05;9.73;;;3.50;;
20758;SDS011;10539;53.686;9.158;2023-02-28T04:23:32;7.50;;;3.67;;
20758;SDS011;10539;53.686;9.158;2023-02-28T04:25:58;9.50;;;3.63;;
20758;SDS011;10539;53.686;9.158;2023-02-28T04:28:24;8.20;;;3.80;;
20758;SDS011;10539;53.686;9.158;2023-02-28T04:31:09;6.63;;;3.50;;
20758;SDS011;10539;53.686;9.158;2023-02-28T04:33:35;6.83;;;3.10;;
20758;SDS011;10539;53.686;9.158;2023-02-28T04:36:04;8.07;;;3.70;;
20758;SDS011;10539;53.686;9.158;2023-02-28T04:38:33;10.53;;;3.93;;
20758;SDS011;10539;53.686;9.158;2023-02-28T04:41:01;8.03;;;4.27;;
20758;SDS011;10539;53.686;9.158;2023-02-28T04:43:27;9.57;;;3.77;;
20758;SDS011;10539;53.686;9.158;2023-02-28T04:45:54;6.97;;;3.30;;
20758;SDS011;10539;53.686;9.158;2023-02-28T04:48:24;6.83;;;3.10;;
20758;SDS011;10539;53.686;9.158;2023-02-28T04:50:51;6.70;;;3.23;;
20758;SDS011;10539;53.686;9.158;2023-02-28T04:53:17;7.20;;;3.23;;
20758;SDS011;10539;53.686;9.158;2023-02-28T04:55:43;16.57;;;3.47;;
20758;SDS011;10539;53.686;9.158;2023-02-28T04:58:10;4.77;;;3.00;;
20758;SDS011;10539;53.686;9.158;2023-02-28T05:00:36;6.73;;;2.97;;
20758;SDS011;10539;53.686;9.158;2023-02-28T05:03:02;5.70;;;3.30;;
20758;SDS011;10539;53.686;9.158;2023-02-28T05:05:27;6.07;;;2.97;;
20758;SDS011;10539;53.686;9.158;2023-02-28T05:07:53;5.87;;;2.77;;
20758;SDS011;10539;53.686;9.158;2023-02-28T05:10:21;6.43;;;3.00;;
20758;SDS011;10539;53.686;9.158;2023-02-28T05:12:47;6.90;;;3.47;;
20758;SDS011;10539;53.686;9.158;2023-02-28T05:15:13;6.83;;;2.50;;
20758;SDS011;10539;53.686;9.158;2023-02-28T05:17:40;7.67;;;3.30;;
20758;SDS011;10539;53.686;9.158;2023-02-28T05:20:06;6.33;;;3.53;;
20758;SDS011;10539;53.686;9.158;2023-02-28T05:22:36;6.33;;;3.13;;
20758;SDS011;10539;53.686;9.158;2023-02-28T05:25:03;9.97;;;3.77;;
20758;SDS011;10539;53.686;9.158;2023-02-28T05:27:29;11.53;;;4.00;;
20758;SDS011;10539;53.686;9.158;2023-02-28T05:29:56;9.73;;;4.57;;
20758;SDS011;10539;53.686;9.158;2023-02-28T05:32:22;8.33;;;5.00;;
20758;SDS011;10539;53.686;9.158;2023-02-28T05:34:48;8.80;;;3.77;;
20758;SDS011;10539;53.686;9.158;2023-02-28T05:37:14;9.50;;;4.13;;
20758;SDS011;10539;53.686;9.158;2023-02-28T05:39:41;10.60;;;3.70;;
20758;SDS011;10539;53.686;9.158;2023-02-28T05:42:07;6.83;;;3.43;;
20758;SDS011;10539;53.686;9.158;2023-02-28T05:44:35;5.17;;;3.23;;
20758;SDS011;10539;53.686;9.158;2023-02-28T05:47:01;6.07;;;3.13;;
20758;SDS011;10539;53.686;9.158;2023-02-28T05:49:27;4.33;;;2.80;;
20758;SDS011;10539;53.686;9.158;2023-02-28T05:51:52;6.57;;;2.80;;
20758;SDS011;10539;53.686;9.158;2023-02-28T05:54:18;7.40;;;3.03;;
20758;SDS011;10539;53.686;9.158;2023-02-28T05:56:44;6.83;;;2.97;;
20758;SDS011;10539;53.686;9.158;2023-02-28T05:59:13;9.77;;;3.30;;
20758;SDS011;10539;53.686;9.158;2023-02-28T06:01:40;10.27;;;3.80;;
20758;SDS011;10539;53.686;9.158;2023-02-28T06:04:13;8.13;;;3.40;;
20758;SDS011;10539;53.686;9.158;2023-02-28T06:06:46;5.07;;;3.63;;
20758;SDS011;10539;53.686;9.158;2023-02-28T06:09:12;6.27;;;3.33;;
20758;SDS011;10539;53.686;9.158;2023-02-28T06:11:38;6.70;;;3.20;;
20758;SDS011;10539;53.686;9.158;2023-02-28T06:14:04;7.60;;;3.40;;
20758;SDS011;10539;53.686;9.158;2023-02-28T06:16:31;8.30;;;3.93;;
20758;SDS011;10539;53.686;9.158;2023-02-28T06:19:00;6.13;;;3.80;;
20758;SDS011;10539;53.686;9.158;2023-02-28T06:21:27;7.10;;;4.17;;
20758;SDS011;10539;53.686;9.158;2023-02-28T06:23:54;9.77;;;4.23;;
20758;SDS011;10539;53.686;9.158;2023-02-28T06:26:21;7.07;;;3.90;;
20758;SDS011;10539;53.686;9.158;2023-02-28T06:28:47;5.30;;;3.50;;
20758;SDS011;10539;53.686;9.158;2023-02-28T06:31:14;6.63;;;3.17;;
20758;SDS011;10539;53.686;9.158;2023-02-28T06:33:42;8.90;;;3.07;;
20758;SDS011;10539;53.686;9.158;2023-02-28T06:36:09;6.30;;;3.07;;
20758;SDS011;10539;53.686;9.158;2023-02-28T06:38:37;5.90;;;3.20;;
20758;SDS011;10539;53.686;9.158;2023-02-28T06:41:04;6.37;;;3.00;;
20758;SDS011;10539;53.686;9.158;2023-02-28T06:43:31;7.10;;;2.70;;
20758;SDS011;10539;53.686;9.158;2023-02-28T06:45:59;8.13;;;3.27;;
20758;SDS011;10539;53.686;9.158;2023-02-28T06:48:26;7.73;;;3.37;;
20758;SDS011;10539;53.686;9.158;2023-02-28T06:50:52;5.43;;;3.27;;
20758;SDS011;10539;53.686;9.158;2023-02-28T06:53:28;15.10;;;3.03;;
20758;SDS011;10539;53.686;9.158;2023-02-28T06:55:53;7.17;;;2.67;;
20758;SDS011;10539;53.686;9.158;2023-02-28T06:58:19;5.70;;;2.73;;
20758;SDS011;10539;53.686;9.158;2023-02-28T07:00:45;5.30;;;2.30;;
20758;SDS011;10539;53.686;9.158;2023-02-28T07:03:15;3.90;;;2.53;;
20758;SDS011;10539;53.686;9.158;2023-02-28T07:05:42;4.37;;;2.43;;
20758;SDS011;10539;53.686;9.158;2023-02-28T07:08:08;5.17;;;2.80;;
20758;SDS011;10539;53.686;9.158;2023-02-28T07:10:34;4.87;;;2.60;;
20758;SDS011;10539;53.686;9.158;2023-02-28T07:13:02;8.37;;;2.60;;
20758;SDS011;10539;53.686;9.158;2023-02-28T07:15:28;7.87;;;2.63;;
20758;SDS011;10539;53.686;9.158;2023-02-28T07:17:54;6.93;;;2.73;;
20758;SDS011;10539;53.686;9.158;2023-02-28T07:20:21;6.37;;;2.70;;
20758;SDS011;10539;53.686;9.158;2023-02-28T07:22:48;5.87;;;2.20;;
20758;SDS011;10539;53.686;9.158;2023-02-28T07:25:20;6.03;;;2.50;;
20758;SDS011;10539;53.686;9.158;2023-02-28T07:27:50;6.33;;;3.40;;
20758;SDS011;10539;53.686;9.158;2023-02-28T07:30:16;11.17;;;3.43;;
20758;SDS011;10539;53.686;9.158;2023-02-28T07:32:42;11.27;;;3.13;;
20758;SDS011;10539;53.686;9.158;2023-02-28T07:35:08;4.40;;;2.63;;
20758;SDS011;10539;53.686;9.158;2023-02-28T07:37:34;5.73;;;2.60;;
20758;SDS011;10539;53.686;9.158;2023-02-28T07:40:05;6.40;;;2.67;;
20758;SDS011;10539;53.686;9.158;2023-02-28T07:42:36;11.27;;;3.10;;
20758;SDS011;10539;53.686;9.158;2023-02-28T07:45:03;4.70;;;2.70;;
20758;SDS011;10539;53.686;9.158;2023-02-28T07:47:30;5.00;;;2.23;;
20758;SDS011;10539;53.686;9.158;2023-02-28T07:49:57;4.70;;;2.43;;
20758;SDS011;10539;53.686;9.158;2023-02-28T07:52:22;8.97;;;3.07;;
20758;SDS011;10539;53.686;9.158;2023-02-28T07:54:51;8.07;;;2.83;;
20758;SDS011;10539;53.686;9.158;2023-02-28T07:57:17;6.83;;;3.10;;
20758;SDS011;10539;53.686;9.158;2023-02-28T07:59:43;4.03;;;2.20;;
20758;SDS011;10539;53.686;9.158;2023-02-28T08:02:11;4.17;;;2.43;;
20758;SDS011;10539;53.686;9.158;2023-02-28T08:04:39;4.33;;;2.40;;
20758;SDS011;10539;53.686;9.158;2023-02-28T08:07:05;5.20;;;2.60;;
20758;SDS011;10539;53.686;9.158;2023-02-28T08:09:31;5.53;;;2.50;;
20758;SDS011;10539;53.686;9.158;2023-02-28T08:11:57;7.07;;;2.50;;
20758;SDS011;10539;53.686;9.158;2023-02-28T08:14:23;6.70;;;2.80;;
20758;SDS011;10539;53.686;9.158;2023-02-28T08:16:48;5.30;;;2.87;;
20758;SDS011;10539;53.686;9.158;2023-02-28T08:19:14;5.23;;;2.90;;
20758;SDS011;10539;53.686;9.158;2023-02-28T08:21:40;5.33;;;2.83;;
20758;SDS011;10539;53.686;9.158;2023-02-28T08:24:06;5.37;;;2.60;;
20758;SDS011;10539;53.686;9.158;2023-02-28T08:26:32;8.50;;;2.83;;
20758;SDS011;10539;53.686;9.158;2023-02-28T08:28:57;6.00;;;2.70;;
20758;SDS011;10539;53.686;9.158;2023-02-28T08:31:23;4.70;;;2.93;;
20758;SDS011;10539;53.686;9.158;2023-02-28T08:33:49;4.73;;;2.70;;
20758;SDS011;10539;53.686;9.158;2023-02-28T08:36:17;4.63;;;2.80;;
20758;SDS011;10539;53.686;9.158;2023-02-28T08:38:43;9.50;;;2.73;;
20758;SDS011;10539;53.686;9.158;2023-02-28T08:41:10;5.17;;;2.67;;
20758;SDS011;10539;53.686;9.158;2023-02-28T08:43:37;5.30;;;2.50;;
20758;SDS011;10539;53.686;9.158;2023-02-28T08:46:04;6.10;;;2.47;;
20758;SDS011;10539;53.686;9.158;2023-02-28T08:48:31;7.77;;;2.80;;
20758;SDS011;10539;53.686;9.158;2023-02-28T08:50:58;8.97;;;2.87;;
20758;SDS011;10539;53.686;9.158;2023-02-28T08:53:26;9.53;;;2.80;;
20758;SDS011;10539;53.686;9.158;2023-02-28T08:55:59;9.47;;;3.23;;
20758;SDS011;10539;53.686;9.158;2023-02-28T08:58:26;7.83;;;2.80;;
20758;SDS011;10539;53.686;9.158;2023-02-28T09:00:52;7.83;;;2.97;;
20758;SDS011;10539;53.686;9.158;2023-02-28T09:03:18;7.13;;;2.60;;
20758;SDS011;10539;53.686;9.158;2023-02-28T09:08:21;5.13;;;2.30;;
20758;SDS011;10539;53.686;9.158;2023-02-28T09:10:47;10.87;;;2.90;;
20758;SDS011;10539;53.686;9.158;2023-02-28T09:13:13;11.53;;;2.80;;
20758;SDS011;10539;53.686;9.158;2023-02-28T09:15:38;6.17;;;2.63;;
20758;SDS011;10539;53.686;9.158;2023-02-28T09:18:04;11.33;;;2.70;;
20758;SDS011;10539;53.686;9.158;2023-02-28T09:20:30;9.50;;;2.60;;
20758;SDS011;10539;53.686;9.158;2023-02-28T09:22:56;4.33;;;2.20;;
20758;SDS011;10539;53.686;9.158;2023-02-28T09:25:21;6.67;;;2.70;;
20758;SDS011;10539;53.686;9.158;2023-02-28T09:27:47;7.27;;;2.57;;
20758;SDS011;10539;53.686;9.158;2023-02-28T09:30:13;9.73;;;2.37;;
20758;SDS011;10539;53.686;9.158;2023-02-28T09:32:39;5.43;;;2.40;;
20758;SDS011;10539;53.686;9.158;2023-02-28T09:35:05;5.73;;;1.93;;
20758;SDS011;10539;53.686;9.158;2023-02-28T09:37:31;2.90;;;2.00;;
20758;SDS011;10539;53.686;9.158;2023-02-28T09:39:57;8.77;;;2.13;;
20758;SDS011;10539;53.686;9.158;2023-02-28T09:42:29;6.23;;;2.10;;
20758;SDS011;10539;53.686;9.158;2023-02-28T09:44:58;4.13;;;2.07;;
20758;SDS011;10539;53.686;9.158;2023-02-28T09:47:29;5.57;;;2.30;;
20758;SDS011;10539;53.686;9.158;2023-02-28T09:49:58;6.93;;;2.10;;
20758;SDS011;10539;53.686;9.158;2023-02-28T09:52:41;4.90;;;2.00;;
20758;SDS011;10539;53.686;9.158;2023-02-28T09:58:04;4.97;;;1.90;;
20758;SDS011;10539;53.686;9.158;2023-02-28T10:00:34;6.73;;;1.70;;
20758;SDS011;10539;53.686;9.158;2023-02-28T10:03:24;10.83;;;1.97;;
20758;SDS011;10539;53.686;9.158;2023-02-28T10:09:14;4.67;;;1.87;;
20758;SDS011;10539;53.686;9.158;2023-02-28T10:11:48;4.83;;;1.90;;
20758;SDS011;10539;53.686;9.158;2023-02-28T10:14:21;3.60;;;2.30;;
20758;SDS011;10539;53.686;9.158;2023-02-28T10:16:56;7.57;;;2.40;;
20758;SDS011;10539;53.686;9.158;2023-02-28T10:19:33;6.80;;;2.30;;
20758;SDS011;10539;53.686;9.158;2023-02-28T10:22:11;6.07;;;1.83;;
20758;SDS011;10539;53.686;9.158;2023-02-28T10:24:39;4.13;;;1.87;;
20758;SDS011;10539;53.686;9.158;2023-02-28T10:27:27;2.77;;;1.20;;
20758;SDS011;10539;53.686;9.158;2023-02-28T10:29:57;6.23;;;2.10;;
20758;SDS011;10539;53.686;9.158;2023-02-28T10:32:27;5.63;;;1.97;;
20758;SDS011;10539;53.686;9.158;2023-02-28T10:34:59;4.93;;;2.00;;
20758;SDS011;10539;53.686;9.158;2023-02-28T10:37:26;4.87;;;1.77;;
20758;SDS011;10539;53.686;9.158;2023-02-28T10:39:52;4.37;;;1.83;;
20758;SDS011;10539;53.686;9.158;2023-02-28T10:45:03;6.70;;;2.07;;
20758;SDS011;10539;53.686;9.158;2023-02-28T10:47:30;3.77;;;1.33;;
20758;SDS011;10539;53.686;9.158;2023-02-28T10:49:58;3.10;;;1.20;;
20758;SDS011;10539;53.686;9.158;2023-02-28T10:52:39;1.93;;;1.20;;
20758;SDS011;10539;53.686;9.158;2023-02-28T10:55:22;2.87;;;1.13;;
20758;SDS011;10539;53.686;9.158;2023-02-28T10:57:51;3.10;;;1.10;;
20758;SDS011;10539;53.686;9.158;2023-02-28T11:02:46;4.37;;;1.27;;
20758;SDS011;10539;53.686;9.158;2023-02-28T11:08:10;2.53;;;1.33;;
20758;SDS011;10539;53.686;9.158;2023-02-28T11:10:39;1.93;;;1.00;;
20758;SDS011;10539;53.686;9.158;2023-02-28T11:13:17;2.47;;;1.07;;
20758;SDS011;10539;53.686;9.158;2023-02-28T11:15:54;1.90;;;1.20;;
20758;SDS011;10539;53.686;9.158;2023-02-28T11:18:27;3.07;;;1.00;;
20758;SDS011;10539;53.686;9.158;2023-02-28T11:21:21;4.17;;;1.40;;
20758;SDS011;10539;53.686;9.158;2023-02-28T11:23:49;3.30;;;1.13;;
20758;SDS011;10539;53.686;9.158;2023-02-28T11:26:34;4.33;;;1.50;;
20758;SDS011;10539;53.686;9.158;2023-02-28T11:29:12;2.00;;;1.17;;
20758;SDS011;10539;53.686;9.158;2023-02-28T11:34:41;2.30;;;1.30;;
20758;SDS011;10539;53.686;9.158;2023-02-28T11:37:12;3.33;;;1.40;;
20758;SDS011;10539;53.686;9.158;2023-02-28T11:39:41;6.60;;;1.57;;
20758;SDS011;10539;53.686;9.158;2023-02-28T11:45:03;4.00;;;1.80;;
20758;SDS011;10539;53.686;9.158;2023-02-28T11:48:02;4.07;;;1.37;;
20758;SDS011;10539;53.686;9.158;2023-02-28T11:59:29;2.60;;;1.30;;
20758;SDS011;10539;53.686;9.158;2023-02-28T12:02:16;4.47;;;1.50;;
20758;SDS011;10539;53.686;9.158;2023-02-28T12:10:39;4.57;;;1.30;;
20758;SDS011;10539;53.686;9.158;2023-02-28T12:13:21;3.33;;;1.43;;
20758;SDS011;10539;53.686;9.158;2023-02-28T12:18:36;2.30;;;1.40;;
20758;SDS011;10539;53.686;9.158;2023-02-28T12:26:47;2.23;;;1.20;;
20758;SDS011;10539;53.686;9.158;2023-02-28T12:29:19;3.73;;;1.37;;
20758;SDS011;10539;53.686;9.158;2023-02-28T12:32:37;4.50;;;1.50;;
20758;SDS011;10539;53.686;9.158;2023-02-28T12:40:06;2.97;;;1.03;;
20758;SDS011;10539;53.686;9.158;2023-02-28T12:42:42;2.57;;;1.30;;
20758;SDS011;10539;53.686;9.158;2023-02-28T12:45:49;2.17;;;1.20;;
20758;SDS011;10539;53.686;9.158;2023-02-28T12:48:29;2.40;;;1.23;;
20758;SDS011;10539;53.686;9.158;2023-02-28T12:51:04;2.17;;;1.10;;
20758;SDS011;10539;53.686;9.158;2023-02-28T12:59:03;4.30;;;1.50;;
20758;SDS011;10539;53.686;9.158;2023-02-28T13:10:12;3.43;;;1.10;;
20758;SDS011;10539;53.686;9.158;2023-02-28T13:12:47;3.37;;;1.27;;
20758;SDS011;10539;53.686;9.158;2023-02-28T13:15:18;2.00;;;1.30;;
20758;SDS011;10539;53.686;9.158;2023-02-28T13:17:52;2.27;;;1.07;;
20758;SDS011;10539;53.686;9.158;2023-02-28T13:20:21;2.00;;;1.10;;
20758;SDS011;10539;53.686;9.158;2023-02-28T13:22:51;2.30;;;1.13;;
20758;SDS011;10539;53.686;9.158;2023-02-28T13:27:51;3.63;;;1.20;;
20758;SDS011;10539;53.686;9.158;2023-02-28T13:33:23;4.07;;;1.33;;
20758;SDS011;10539;53.686;9.158;2023-02-28T13:36:01;5.83;;;1.50;;
20758;SDS011;10539;53.686;9.158;2023-02-28T13:38:35;2.50;;;1.60;;
20758;SDS011;10539;53.686;9.158;2023-02-28T13:44:20;4.90;;;1.40;;
20758;SDS011;10539;53.686;9.158;2023-02-28T13:54:38;2.77;;;1.23;;
20758;SDS011;10539;53.686;9.158;2023-02-28T14:05:41;3.97;;;1.37;;
20758;SDS011;10539;53.686;9.158;2023-02-28T14:08:12;4.07;;;1.30;;
20758;SDS011;10539;53.686;9.158;2023-02-28T14:10:50;2.23;;;1.30;;
20758;SDS011;10539;53.686;9.158;2023-02-28T14:16:05;3.13;;;1.40;;
20758;SDS011;10539;53.686;9.158;2023-02-28T14:18:32;2.17;;;1.10;;
20758;SDS011;10539;53.686;9.158;2023-02-28T14:21:16;3.30;;;1.40;;
20758;SDS011;10539;53.686;9.158;2023-02-28T14:26:31;2.27;;;1.30;;
20758;SDS011;10539;53.686;9.158;2023-02-28T14:34:48;4.50;;;1.40;;
20758;SDS011;10539;53.686;9.158;2023-02-28T14:37:36;3.60;;;1.60;;
20758;SDS011;10539;53.686;9.158;2023-02-28T14:40:04;3.60;;;1.60;;
20758;SDS011;10539;53.686;9.158;2023-02-28T14:42:37;4.70;;;1.87;;
20758;SDS011;10539;53.686;9.158;2023-02-28T14:45:16;2.73;;;1.50;;
20758;SDS011;10539;53.686;9.158;2023-02-28T14:47:47;3.20;;;1.80;;
20758;SDS011;10539;53.686;9.158;2023-02-28T14:50:19;3.30;;;1.77;;
20758;SDS011;10539;53.686;9.158;2023-02-28T14:52:47;4.07;;;1.73;;
20758;SDS011;10539;53.686;9.158;2023-02-28T14:55:18;3.17;;;1.67;;
20758;SDS011;10539;53.686;9.158;2023-02-28T14:57:53;4.50;;;1.80;;
20758;SDS011;10539;53.686;9.158;2023-02-28T15:00:28;2.37;;;1.67;;
20758;SDS011;10539;53.686;9.158;2023-02-28T15:02:57;4.03;;;1.80;;
20758;SDS011;10539;53.686;9.158;2023-02-28T15:08:15;4.97;;;1.90;;
20758;SDS011;10539;53.686;9.158;2023-02-28T15:10:42;2.93;;;1.33;;
20758;SDS011;10539;53.686;9.158;2023-02-28T15:13:20;4.27;;;1.70;;
20758;SDS011;10539;53.686;9.158;2023-02-28T15:15:48;3.97;;;1.80;;
20758;SDS011;10539;53.686;9.158;2023-02-28T15:18:22;3.10;;;1.60;;
20758;SDS011;10539;53.686;9.158;2023-02-28T15:21:09;3.37;;;1.80;;
20758;SDS011;10539;53.686;9.158;2023-02-28T15:23:39;5.70;;;2.10;;
20758;SDS011;10539;53.686;9.158;2023-02-28T15:26:09;3.27;;;1.50;;
20758;SDS011;10539;53.686;9.158;2023-02-28T15:28:39;4.90;;;1.43;;
20758;SDS011;10539;53.686;9.158;2023-02-28T15:31:19;5.57;;;1.77;;
20758;SDS011;10539;53.686;9.158;2023-02-28T15:33:54;9.00;;;1.90;;
20758;SDS011;10539;53.686;9.158;2023-02-28T15:36:23;4.23;;;1.93;;
20758;SDS011;10539;53.686;9.158;2023-02-28T15:38:53;4.33;;;2.40;;
20758;SDS011;10539;53.686;9.158;2023-02-28T15:41:27;3.43;;;1.70;;
20758;SDS011;10539;53.686;9.158;2023-02-28T15:46:57;3.80;;;2.20;;
20758;SDS011;10539;53.686;9.158;2023-02-28T15:49:24;2.40;;;1.37;;
20758;SDS011;10539;53.686;9.158;2023-02-28T15:51:51;3.37;;;1.87;;
20758;SDS011;10539;53.686;9.158;2023-02-28T15:54:20;5.33;;;2.73;;
20758;SDS011;10539;53.686;9.158;2023-02-28T15:56:53;4.03;;;1.90;;
20758;SDS011;10539;53.686;9.158;2023-02-28T15:59:26;6.77;;;2.30;;
20758;SDS011;10539;53.686;9.158;2023-02-28T16:04:35;3.50;;;1.70;;
20758;SDS011;10539;53.686;9.158;2023-02-28T16:07:03;2.93;;;1.60;;
20758;SDS011;10539;53.686;9.158;2023-02-28T16:09:29;2.13;;;1.40;;
20758;SDS011;10539;53.686;9.158;2023-02-28T16:11:56;3.23;;;1.57;;
20758;SDS011;10539;53.686;9.158;2023-02-28T16:14:27;4.43;;;1.90;;
20758;SDS011;10539;53.686;9.158;2023-02-28T16:16:56;2.17;;;1.60;;
20758;SDS011;10539;53.686;9.158;2023-02-28T16:19:28;2.87;;;1.40;;
20758;SDS011;10539;53.686;9.158;2023-02-28T16:21:54;2.87;;;1.70;;
20758;SDS011;10539;53.686;9.158;2023-02-28T16:24:20;2.57;;;1.73;;
20758;SDS011;10539;53.686;9.158;2023-02-28T16:26:46;4.93;;;2.10;;
20758;SDS011;10539;53.686;9.158;2023-02-28T16:29:35;3.97;;;1.77;;
20758;SDS011;10539;53.686;9.158;2023-02-28T16:32:04;3.77;;;2.03;;
20758;SDS011;10539;53.686;9.158;2023-02-28T16:34:31;2.80;;;1.90;;
20758;SDS011;10539;53.686;9.158;2023-02-28T16:36:57;3.73;;;2.30;;
20758;SDS011;10539;53.686;9.158;2023-02-28T16:39:23;5.97;;;2.57;;
20758;SDS011;10539;53.686;9.158;2023-02-28T16:41:49;5.47;;;2.33;;
20758;SDS011;10539;53.686;9.158;2023-02-28T16:46:56;6.97;;;2.00;;
20758;SDS011;10539;53.686;9.158;2023-02-28T16:49:24;3.83;;;2.00;;
20758;SDS011;10539;53.686;9.158;2023-02-28T16:51:50;3.37;;;1.90;;
20758;SDS011;10539;53.686;9.158;2023-02-28T16:54:16;5.53;;;2.17;;
20758;SDS011;10539;53.686;9.158;2023-02-28T16:56:43;4.00;;;2.17;;
20758;SDS011;10539;53.686;9.158;2023-02-28T16:59:11;5.37;;;2.83;;
20758;SDS011;10539;53.686;9.158;2023-02-28T17:01:37;5.57;;;2.80;;
20758;SDS011;10539;53.686;9.158;2023-02-28T17:04:03;4.10;;;2.60;;
20758;SDS011;10539;53.686;9.158;2023-02-28T17:06:29;16.27;;;6.87;;
20758;SDS011;10539;53.686;9.158;2023-02-28T17:08:56;11.50;;;4.53;;
20758;SDS011;10539;53.686;9.158;2023-02-28T17:11:24;8.67;;;3.87;;
20758;SDS011;10539;53.686;9.158;2023-02-28T17:13:50;6.23;;;3.27;;
20758;SDS011;10539;53.686;9.158;2023-02-28T17:16:28;7.67;;;4.50;;
20758;SDS011;10539;53.686;9.158;2023-02-28T17:19:00;7.53;;;4.10;;
20758;SDS011;10539;53.686;9.158;2023-02-28T17:21:29;11.13;;;4.70;;
20758;SDS011;10539;53.686;9.158;2023-02-28T17:23:56;13.97;;;7.03;;
20758;SDS011;10539;53.686;9.158;2023-02-28T17:26:23;13.33;;;6.93;;
20758;SDS011;10539;53.686;9.158;2023-02-28T17:28:54;12.57;;;5.80;;
20758;SDS011;10539;53.686;9.158;2023-02-28T17:31:24;12.60;;;7.93;;
20758;SDS011;10539;53.686;9.158;2023-02-28T17:33:51;15.70;;;8.60;;